sensor_id;sensor_type;location;lat;lon;timestamp;P1;durP1;ratioP1;P2;durP2;ratioP2
22622;SDS011;11478;51.094;7.030;2023-11-22T00:00:41;27.77;;;18.58;;
22622;SDS011;11478;51.094;7.030;2023-11-22T00:03:08;32.35;;;18.27;;
22622;SDS011;11478;51.094;7.030;2023-11-22T00:05:36;26.52;;;17.98;;
22622;SDS011;11478;51.094;7.030;2023-11-22T00:08:02;26.13;;;18.38;;
22622;SDS011;11478;51.094;7.030;2023-11-22T00:10:35;26.77;;;18.27;;
22622;SDS011;11478;51.094;7.030;2023-11-22T00:13:01;27.20;;;17.42;;
22622;SDS011;11478;51.094;7.030;2023-11-22T00:15:27;24.15;;;18.17;;
22622;SDS011;11478;51.094;7.030;2023-11-22T00:17:53;25.27;;;17.08;;
22622;SDS011;11478;51.094;7.030;2023-11-22T00:20:19;22.13;;;17.02;;
22622;SDS011;11478;51.094;7.030;2023-11-22T00:22:46;25.55;;;16.88;;
22622;SDS011;11478;51.094;7.030;2023-11-22T00:25:12;27.30;;;18.38;;
22622;SDS011;11478;51.094;7.030;2023-11-22T00:27:38;24.25;;;17.83;;
22622;SDS011;11478;51.094;7.030;2023-11-22T00:30:04;29.95;;;18.23;;
22622;SDS011;11478;51.094;7.030;2023-11-22T00:32:31;30.58;;;18.52;;
22622;SDS011;11478;51.094;7.030;2023-11-22T00:34:57;25.77;;;17.17;;
22622;SDS011;11478;51.094;7.030;2023-11-22T00:37:23;30.58;;;17.70;;
22622;SDS011;11478;51.094;7.030;2023-11-22T00:39:48;21.88;;;15.90;;
22622;SDS011;11478;51.094;7.030;2023-11-22T00:42:14;23.50;;;16.05;;
22622;SDS011;11478;51.094;7.030;2023-11-22T00:44:40;23.40;;;15.82;;
22622;SDS011;11478;51.094;7.030;2023-11-22T00:47:07;26.20;;;16.65;;
22622;SDS011;11478;51.094;7.030;2023-11-22T00:49:33;26.92;;;15.95;;
22622;SDS011;11478;51.094;7.030;2023-11-22T00:51:58;22.77;;;16.42;;
22622;SDS011;11478;51.094;7.030;2023-11-22T00:54:24;22.88;;;16.10;;
22622;SDS011;11478;51.094;7.030;2023-11-22T00:56:51;21.27;;;16.10;;
22622;SDS011;11478;51.094;7.030;2023-11-22T00:59:17;24.67;;;16.75;;
22622;SDS011;11478;51.094;7.030;2023-11-22T01:01:44;30.70;;;18.92;;
22622;SDS011;11478;51.094;7.030;2023-11-22T01:04:10;25.42;;;18.58;;
22622;SDS011;11478;51.094;7.030;2023-11-22T01:06:36;29.17;;;19.20;;
22622;SDS011;11478;51.094;7.030;2023-11-22T01:09:02;29.55;;;18.55;;
22622;SDS011;11478;51.094;7.030;2023-11-22T01:11:29;24.73;;;18.23;;
22622;SDS011;11478;51.094;7.030;2023-11-22T01:13:56;34.60;;;22.23;;
22622;SDS011;11478;51.094;7.030;2023-11-22T01:16:22;30.60;;;21.20;;
22622;SDS011;11478;51.094;7.030;2023-11-22T01:18:53;26.70;;;18.45;;
22622;SDS011;11478;51.094;7.030;2023-11-22T01:21:19;31.67;;;20.95;;
22622;SDS011;11478;51.094;7.030;2023-11-22T01:23:45;28.15;;;19.80;;
22622;SDS011;11478;51.094;7.030;2023-11-22T01:26:11;33.70;;;23.15;;
22622;SDS011;11478;51.094;7.030;2023-11-22T01:28:39;35.58;;;23.48;;
22622;SDS011;11478;51.094;7.030;2023-11-22T01:31:10;34.60;;;23.75;;
22622;SDS011;11478;51.094;7.030;2023-11-22T01:33:38;31.55;;;22.70;;
22622;SDS011;11478;51.094;7.030;2023-11-22T01:36:04;31.35;;;21.27;;
22622;SDS011;11478;51.094;7.030;2023-11-22T01:38:31;31.83;;;22.10;;
22622;SDS011;11478;51.094;7.030;2023-11-22T01:40:57;33.63;;;22.50;;
22622;SDS011;11478;51.094;7.030;2023-11-22T01:43:23;35.95;;;23.67;;
22622;SDS011;11478;51.094;7.030;2023-11-22T01:45:52;31.83;;;22.30;;
22622;SDS011;11478;51.094;7.030;2023-11-22T01:48:19;28.27;;;20.77;;
22622;SDS011;11478;51.094;7.030;2023-11-22T01:50:46;34.03;;;23.13;;
22622;SDS011;11478;51.094;7.030;2023-11-22T01:53:13;32.45;;;21.67;;
22622;SDS011;11478;51.094;7.030;2023-11-22T01:55:41;30.52;;;19.80;;
22622;SDS011;11478;51.094;7.030;2023-11-22T01:58:08;28.63;;;19.48;;
22622;SDS011;11478;51.094;7.030;2023-11-22T02:00:42;25.58;;;19.20;;
22622;SDS011;11478;51.094;7.030;2023-11-22T02:03:13;28.13;;;19.73;;
22622;SDS011;11478;51.094;7.030;2023-11-22T02:05:41;28.00;;;19.92;;
22622;SDS011;11478;51.094;7.030;2023-11-22T02:08:09;29.80;;;20.83;;
22622;SDS011;11478;51.094;7.030;2023-11-22T02:10:36;25.38;;;19.55;;
22622;SDS011;11478;51.094;7.030;2023-11-22T02:13:02;27.85;;;20.85;;
22622;SDS011;11478;51.094;7.030;2023-11-22T02:15:30;33.38;;;21.70;;
22622;SDS011;11478;51.094;7.030;2023-11-22T02:17:56;28.48;;;21.33;;
22622;SDS011;11478;51.094;7.030;2023-11-22T02:20:23;31.27;;;21.08;;
22622;SDS011;11478;51.094;7.030;2023-11-22T02:22:49;29.13;;;21.77;;
22622;SDS011;11478;51.094;7.030;2023-11-22T02:25:16;28.00;;;21.42;;
22622;SDS011;11478;51.094;7.030;2023-11-22T02:27:42;28.40;;;20.98;;
22622;SDS011;11478;51.094;7.030;2023-11-22T02:30:08;29.08;;;20.90;;
22622;SDS011;11478;51.094;7.030;2023-11-22T02:32:34;26.85;;;21.08;;
22622;SDS011;11478;51.094;7.030;2023-11-22T02:35:02;28.77;;;21.15;;
22622;SDS011;11478;51.094;7.030;2023-11-22T02:37:32;28.55;;;21.50;;
22622;SDS011;11478;51.094;7.030;2023-11-22T02:42:45;25.77;;;19.58;;
22622;SDS011;11478;51.094;7.030;2023-11-22T02:45:17;23.98;;;19.23;;
22622;SDS011;11478;51.094;7.030;2023-11-22T02:47:44;26.23;;;20.02;;
22622;SDS011;11478;51.094;7.030;2023-11-22T02:50:12;28.60;;;20.25;;
22622;SDS011;11478;51.094;7.030;2023-11-22T02:52:39;27.75;;;20.95;;
22622;SDS011;11478;51.094;7.030;2023-11-22T02:55:05;24.40;;;19.38;;
22622;SDS011;11478;51.094;7.030;2023-11-22T02:57:31;27.42;;;19.48;;
22622;SDS011;11478;51.094;7.030;2023-11-22T02:59:58;26.13;;;19.48;;
22622;SDS011;11478;51.094;7.030;2023-11-22T03:02:24;24.77;;;19.00;;
22622;SDS011;11478;51.094;7.030;2023-11-22T03:04:52;24.88;;;18.13;;
22622;SDS011;11478;51.094;7.030;2023-11-22T03:07:20;24.15;;;17.85;;
22622;SDS011;11478;51.094;7.030;2023-11-22T03:09:46;25.02;;;18.92;;
22622;SDS011;11478;51.094;7.030;2023-11-22T03:12:12;23.73;;;17.58;;
22622;SDS011;11478;51.094;7.030;2023-11-22T03:14:39;24.27;;;18.48;;
22622;SDS011;11478;51.094;7.030;2023-11-22T03:17:05;25.30;;;17.85;;
22622;SDS011;11478;51.094;7.030;2023-11-22T03:19:31;26.02;;;18.40;;
22622;SDS011;11478;51.094;7.030;2023-11-22T03:21:59;24.48;;;18.17;;
22622;SDS011;11478;51.094;7.030;2023-11-22T03:24:28;24.75;;;18.08;;
22622;SDS011;11478;51.094;7.030;2023-11-22T03:26:59;26.58;;;18.02;;
22622;SDS011;11478;51.094;7.030;2023-11-22T03:29:25;23.70;;;17.63;;
22622;SDS011;11478;51.094;7.030;2023-11-22T03:31:51;25.30;;;18.75;;
22622;SDS011;11478;51.094;7.030;2023-11-22T03:34:18;25.15;;;18.48;;
22622;SDS011;11478;51.094;7.030;2023-11-22T03:36:45;25.83;;;18.58;;
22622;SDS011;11478;51.094;7.030;2023-11-22T03:39:11;25.83;;;18.67;;
22622;SDS011;11478;51.094;7.030;2023-11-22T03:41:38;27.70;;;17.25;;
22622;SDS011;11478;51.094;7.030;2023-11-22T03:44:04;31.58;;;17.55;;
22622;SDS011;11478;51.094;7.030;2023-11-22T03:46:34;20.33;;;15.80;;
22622;SDS011;11478;51.094;7.030;2023-11-22T03:49:03;22.30;;;17.15;;
22622;SDS011;11478;51.094;7.030;2023-11-22T03:51:38;23.10;;;17.55;;
22622;SDS011;11478;51.094;7.030;2023-11-22T03:54:04;23.38;;;16.08;;
22622;SDS011;11478;51.094;7.030;2023-11-22T03:56:31;26.15;;;17.35;;
22622;SDS011;11478;51.094;7.030;2023-11-22T03:58:58;38.55;;;21.45;;
22622;SDS011;11478;51.094;7.030;2023-11-22T04:01:24;47.75;;;24.73;;
22622;SDS011;11478;51.094;7.030;2023-11-22T04:03:50;42.30;;;23.48;;
22622;SDS011;11478;51.094;7.030;2023-11-22T04:06:16;25.83;;;17.83;;
22622;SDS011;11478;51.094;7.030;2023-11-22T04:08:47;23.00;;;16.88;;
22622;SDS011;11478;51.094;7.030;2023-11-22T04:11:13;23.98;;;17.20;;
22622;SDS011;11478;51.094;7.030;2023-11-22T04:13:39;24.70;;;16.85;;
22622;SDS011;11478;51.094;7.030;2023-11-22T04:16:06;22.27;;;15.23;;
22622;SDS011;11478;51.094;7.030;2023-11-22T04:18:40;22.45;;;15.93;;
22622;SDS011;11478;51.094;7.030;2023-11-22T04:21:07;24.15;;;16.02;;
22622;SDS011;11478;51.094;7.030;2023-11-22T04:23:34;22.17;;;15.73;;
22622;SDS011;11478;51.094;7.030;2023-11-22T04:26:00;24.98;;;16.17;;
22622;SDS011;11478;51.094;7.030;2023-11-22T04:28:28;35.55;;;21.05;;
22622;SDS011;11478;51.094;7.030;2023-11-22T04:30:55;27.58;;;17.52;;
22622;SDS011;11478;51.094;7.030;2023-11-22T04:33:22;27.13;;;17.25;;
22622;SDS011;11478;51.094;7.030;2023-11-22T04:35:48;23.60;;;18.17;;
22622;SDS011;11478;51.094;7.030;2023-11-22T04:38:15;26.98;;;18.45;;
22622;SDS011;11478;51.094;7.030;2023-11-22T04:40:41;34.72;;;21.42;;
22622;SDS011;11478;51.094;7.030;2023-11-22T04:43:11;24.02;;;17.50;;
22622;SDS011;11478;51.094;7.030;2023-11-22T04:45:37;29.38;;;17.85;;
22622;SDS011;11478;51.094;7.030;2023-11-22T04:48:04;26.35;;;17.80;;
22622;SDS011;11478;51.094;7.030;2023-11-22T04:50:32;32.45;;;18.13;;
22622;SDS011;11478;51.094;7.030;2023-11-22T04:52:59;29.73;;;18.17;;
22622;SDS011;11478;51.094;7.030;2023-11-22T04:55:29;26.55;;;16.60;;
22622;SDS011;11478;51.094;7.030;2023-11-22T05:00:25;36.63;;;19.88;;
22622;SDS011;11478;51.094;7.030;2023-11-22T05:02:52;31.98;;;19.10;;
22622;SDS011;11478;51.094;7.030;2023-11-22T05:05:19;28.98;;;18.17;;
22622;SDS011;11478;51.094;7.030;2023-11-22T05:07:46;29.17;;;18.38;;
22622;SDS011;11478;51.094;7.030;2023-11-22T05:10:15;28.35;;;18.77;;
22622;SDS011;11478;51.094;7.030;2023-11-22T05:12:42;94.38;;;22.02;;
22622;SDS011;11478;51.094;7.030;2023-11-22T05:15:09;26.95;;;17.60;;
22622;SDS011;11478;51.094;7.030;2023-11-22T05:17:36;39.22;;;18.95;;
22622;SDS011;11478;51.094;7.030;2023-11-22T05:20:02;29.73;;;19.35;;
22622;SDS011;11478;51.094;7.030;2023-11-22T05:22:38;28.45;;;18.92;;
22622;SDS011;11478;51.094;7.030;2023-11-22T05:25:04;38.55;;;22.05;;
22622;SDS011;11478;51.094;7.030;2023-11-22T05:27:32;29.67;;;17.77;;
22622;SDS011;11478;51.094;7.030;2023-11-22T05:29:58;25.08;;;17.63;;
22622;SDS011;11478;51.094;7.030;2023-11-22T05:32:26;25.70;;;17.70;;
22622;SDS011;11478;51.094;7.030;2023-11-22T05:34:56;30.40;;;18.55;;
22622;SDS011;11478;51.094;7.030;2023-11-22T05:37:22;29.38;;;18.40;;
22622;SDS011;11478;51.094;7.030;2023-11-22T05:39:48;26.80;;;17.38;;
22622;SDS011;11478;51.094;7.030;2023-11-22T05:42:20;60.45;;;18.15;;
22622;SDS011;11478;51.094;7.030;2023-11-22T05:44:46;27.15;;;17.92;;
22622;SDS011;11478;51.094;7.030;2023-11-22T05:47:12;42.83;;;19.98;;
22622;SDS011;11478;51.094;7.030;2023-11-22T05:49:38;64.95;;;28.20;;
22622;SDS011;11478;51.094;7.030;2023-11-22T05:52:05;30.60;;;17.98;;
22622;SDS011;11478;51.094;7.030;2023-11-22T05:54:31;24.83;;;17.52;;
22622;SDS011;11478;51.094;7.030;2023-11-22T05:57:00;25.42;;;16.80;;
22622;SDS011;11478;51.094;7.030;2023-11-22T05:59:26;23.25;;;15.68;;
22622;SDS011;11478;51.094;7.030;2023-11-22T06:01:52;23.50;;;15.70;;
22622;SDS011;11478;51.094;7.030;2023-11-22T06:04:18;26.67;;;15.75;;
22622;SDS011;11478;51.094;7.030;2023-11-22T06:06:44;21.80;;;15.25;;
22622;SDS011;11478;51.094;7.030;2023-11-22T06:09:12;20.13;;;14.65;;
22622;SDS011;11478;51.094;7.030;2023-11-22T06:11:39;19.83;;;14.65;;
22622;SDS011;11478;51.094;7.030;2023-11-22T06:14:08;19.02;;;13.77;;
22622;SDS011;11478;51.094;7.030;2023-11-22T06:16:34;21.77;;;13.68;;
22622;SDS011;11478;51.094;7.030;2023-11-22T06:19:05;19.80;;;13.80;;
22622;SDS011;11478;51.094;7.030;2023-11-22T06:21:32;23.95;;;15.02;;
22622;SDS011;11478;51.094;7.030;2023-11-22T06:24:00;20.70;;;13.32;;
22622;SDS011;11478;51.094;7.030;2023-11-22T06:26:28;20.17;;;13.02;;
22622;SDS011;11478;51.094;7.030;2023-11-22T06:28:55;20.55;;;12.93;;
22622;SDS011;11478;51.094;7.030;2023-11-22T06:31:21;20.75;;;13.85;;
22622;SDS011;11478;51.094;7.030;2023-11-22T06:33:47;25.15;;;14.13;;
22622;SDS011;11478;51.094;7.030;2023-11-22T06:36:13;19.60;;;13.65;;
22622;SDS011;11478;51.094;7.030;2023-11-22T06:38:40;18.60;;;13.13;;
22622;SDS011;11478;51.094;7.030;2023-11-22T06:41:06;22.98;;;13.40;;
22622;SDS011;11478;51.094;7.030;2023-11-22T06:43:32;18.63;;;13.13;;
22622;SDS011;11478;51.094;7.030;2023-11-22T06:45:58;18.55;;;13.35;;
22622;SDS011;11478;51.094;7.030;2023-11-22T06:48:31;19.23;;;13.63;;
22622;SDS011;11478;51.094;7.030;2023-11-22T06:50:58;22.30;;;14.55;;
22622;SDS011;11478;51.094;7.030;2023-11-22T06:53:24;22.38;;;13.98;;
22622;SDS011;11478;51.094;7.030;2023-11-22T06:55:50;22.38;;;14.85;;
22622;SDS011;11478;51.094;7.030;2023-11-22T06:58:19;19.60;;;14.23;;
22622;SDS011;11478;51.094;7.030;2023-11-22T07:00:44;24.98;;;13.65;;
22622;SDS011;11478;51.094;7.030;2023-11-22T07:03:11;88.20;;;16.50;;
22622;SDS011;11478;51.094;7.030;2023-11-22T07:05:38;467.33;;;27.48;;
22622;SDS011;11478;51.094;7.030;2023-11-22T07:08:04;27.33;;;15.60;;
22622;SDS011;11478;51.094;7.030;2023-11-22T07:10:34;24.92;;;14.85;;
22622;SDS011;11478;51.094;7.030;2023-11-22T07:13:00;36.80;;;15.13;;
22622;SDS011;11478;51.094;7.030;2023-11-22T07:15:41;50.00;;;16.05;;
22622;SDS011;11478;51.094;7.030;2023-11-22T07:18:07;110.57;;;17.98;;
22622;SDS011;11478;51.094;7.030;2023-11-22T07:20:36;416.45;;;28.25;;
22622;SDS011;11478;51.094;7.030;2023-11-22T07:23:02;25.88;;;15.77;;
22622;SDS011;11478;51.094;7.030;2023-11-22T07:25:30;29.23;;;16.08;;
22622;SDS011;11478;51.094;7.030;2023-11-22T07:27:56;26.92;;;15.43;;
22622;SDS011;11478;51.094;7.030;2023-11-22T07:30:27;225.82;;;20.38;;
22622;SDS011;11478;51.094;7.030;2023-11-22T07:32:55;354.55;;;24.63;;
22622;SDS011;11478;51.094;7.030;2023-11-22T07:35:26;211.07;;;20.92;;
22622;SDS011;11478;51.094;7.030;2023-11-22T07:37:53;165.27;;;21.30;;
22622;SDS011;11478;51.094;7.030;2023-11-22T07:43:04;244.13;;;22.92;;
22622;SDS011;11478;51.094;7.030;2023-11-22T07:45:31;40.83;;;17.42;;
22622;SDS011;11478;51.094;7.030;2023-11-22T07:47:57;154.57;;;20.45;;
22622;SDS011;11478;51.094;7.030;2023-11-22T07:50:25;78.53;;;17.40;;
22622;SDS011;11478;51.094;7.030;2023-11-22T07:52:54;147.00;;;20.67;;
22622;SDS011;11478;51.094;7.030;2023-11-22T07:55:20;419.35;;;28.25;;
22622;SDS011;11478;51.094;7.030;2023-11-22T07:57:47;165.02;;;20.38;;
22622;SDS011;11478;51.094;7.030;2023-11-22T08:00:14;208.48;;;22.33;;
22622;SDS011;11478;51.094;7.030;2023-11-22T08:02:47;27.88;;;16.70;;
22622;SDS011;11478;51.094;7.030;2023-11-22T08:05:13;90.40;;;18.73;;
22622;SDS011;11478;51.094;7.030;2023-11-22T08:07:42;202.85;;;22.33;;
22622;SDS011;11478;51.094;7.030;2023-11-22T08:10:11;51.83;;;18.27;;
22622;SDS011;11478;51.094;7.030;2023-11-22T08:12:46;74.28;;;18.40;;
22622;SDS011;11478;51.094;7.030;2023-11-22T08:15:17;150.40;;;20.55;;
22622;SDS011;11478;51.094;7.030;2023-11-22T08:17:44;92.82;;;19.40;;
22622;SDS011;11478;51.094;7.030;2023-11-22T08:20:16;43.45;;;19.00;;
22622;SDS011;11478;51.094;7.030;2023-11-22T08:22:43;32.05;;;17.58;;
22622;SDS011;11478;51.094;7.030;2023-11-22T08:25:15;28.08;;;17.50;;
22622;SDS011;11478;51.094;7.030;2023-11-22T08:27:41;31.23;;;17.63;;
22622;SDS011;11478;51.094;7.030;2023-11-22T08:30:16;80.75;;;18.77;;
22622;SDS011;11478;51.094;7.030;2023-11-22T08:32:43;37.03;;;17.50;;
22622;SDS011;11478;51.094;7.030;2023-11-22T08:35:18;91.18;;;19.00;;
22622;SDS011;11478;51.094;7.030;2023-11-22T08:37:45;53.03;;;17.85;;
22622;SDS011;11478;51.094;7.030;2023-11-22T08:40:15;26.50;;;16.73;;
22622;SDS011;11478;51.094;7.030;2023-11-22T08:42:45;49.92;;;17.35;;
22622;SDS011;11478;51.094;7.030;2023-11-22T08:45:12;27.83;;;16.55;;
22622;SDS011;11478;51.094;7.030;2023-11-22T08:50:41;45.20;;;16.83;;
22622;SDS011;11478;51.094;7.030;2023-11-22T08:53:09;30.27;;;17.58;;
22622;SDS011;11478;51.094;7.030;2023-11-22T08:55:34;100.93;;;18.95;;
22622;SDS011;11478;51.094;7.030;2023-11-22T08:58:07;28.45;;;17.70;;
22622;SDS011;11478;51.094;7.030;2023-11-22T09:00:33;66.53;;;18.07;;
22622;SDS011;11478;51.094;7.030;2023-11-22T09:03:06;30.13;;;16.75;;
22622;SDS011;11478;51.094;7.030;2023-11-22T09:08:07;25.60;;;16.10;;
22622;SDS011;11478;51.094;7.030;2023-11-22T09:10:50;33.13;;;15.98;;
22622;SDS011;11478;51.094;7.030;2023-11-22T09:13:16;28.75;;;16.60;;
22622;SDS011;11478;51.094;7.030;2023-11-22T09:15:44;30.30;;;17.05;;
22622;SDS011;11478;51.094;7.030;2023-11-22T09:18:13;25.55;;;15.45;;
22622;SDS011;11478;51.094;7.030;2023-11-22T09:20:41;146.07;;;20.70;;
22622;SDS011;11478;51.094;7.030;2023-11-22T09:23:10;34.90;;;17.20;;
22622;SDS011;11478;51.094;7.030;2023-11-22T09:25:45;27.20;;;16.02;;
22622;SDS011;11478;51.094;7.030;2023-11-22T09:28:10;29.95;;;15.93;;
22622;SDS011;11478;51.094;7.030;2023-11-22T09:30:36;28.60;;;15.73;;
22622;SDS011;11478;51.094;7.030;2023-11-22T09:35:41;21.80;;;13.80;;
22622;SDS011;11478;51.094;7.030;2023-11-22T09:38:09;24.65;;;13.65;;
22622;SDS011;11478;51.094;7.030;2023-11-22T09:40:45;19.48;;;12.35;;
22622;SDS011;11478;51.094;7.030;2023-11-22T09:43:18;15.77;;;9.48;;
22622;SDS011;11478;51.094;7.030;2023-11-22T09:45:47;17.23;;;9.23;;
22622;SDS011;11478;51.094;7.030;2023-11-22T09:48:14;13.25;;;9.23;;
22622;SDS011;11478;51.094;7.030;2023-11-22T09:56:12;10.15;;;7.05;;
22622;SDS011;11478;51.094;7.030;2023-11-22T09:58:40;8.65;;;6.60;;
22622;SDS011;11478;51.094;7.030;2023-11-22T10:01:13;7.88;;;5.97;;
22622;SDS011;11478;51.094;7.030;2023-11-22T10:03:41;9.05;;;6.07;;
22622;SDS011;11478;51.094;7.030;2023-11-22T10:06:07;7.03;;;4.90;;
22622;SDS011;11478;51.094;7.030;2023-11-22T10:08:33;6.60;;;4.93;;
22622;SDS011;11478;51.094;7.030;2023-11-22T10:11:03;6.78;;;4.70;;
22622;SDS011;11478;51.094;7.030;2023-11-22T10:13:29;7.75;;;4.93;;
22622;SDS011;11478;51.094;7.030;2023-11-22T10:16:13;6.05;;;4.70;;
22622;SDS011;11478;51.094;7.030;2023-11-22T10:18:43;5.53;;;4.25;;
22622;SDS011;11478;51.094;7.030;2023-11-22T10:21:44;5.65;;;3.97;;
22622;SDS011;11478;51.094;7.030;2023-11-22T10:24:05;4.45;;;3.80;;
22622;SDS011;11478;51.094;7.030;2023-11-22T10:26:34;5.20;;;3.65;;
22622;SDS011;11478;51.094;7.030;2023-11-22T10:29:00;5.38;;;3.08;;
22622;SDS011;11478;51.094;7.030;2023-11-22T10:33:59;4.50;;;2.83;;
22622;SDS011;11478;51.094;7.030;2023-11-22T10:36:25;4.82;;;2.20;;
22622;SDS011;11478;51.094;7.030;2023-11-22T10:38:51;3.38;;;2.67;;
22622;SDS011;11478;51.094;7.030;2023-11-22T10:41:19;5.90;;;3.00;;
22622;SDS011;11478;51.094;7.030;2023-11-22T10:43:47;4.15;;;2.67;;
22622;SDS011;11478;51.094;7.030;2023-11-22T10:46:18;3.55;;;2.67;;
22622;SDS011;11478;51.094;7.030;2023-11-22T10:48:46;4.10;;;2.92;;
22622;SDS011;11478;51.094;7.030;2023-11-22T10:51:12;4.65;;;2.70;;
22622;SDS011;11478;51.094;7.030;2023-11-22T10:53:41;3.28;;;2.40;;
22622;SDS011;11478;51.094;7.030;2023-11-22T10:56:20;3.75;;;2.00;;
22622;SDS011;11478;51.094;7.030;2023-11-22T10:58:51;3.55;;;2.40;;
22622;SDS011;11478;51.094;7.030;2023-11-22T11:01:23;5.18;;;2.75;;
22622;SDS011;11478;51.094;7.030;2023-11-22T11:04:02;6.22;;;2.80;;
22622;SDS011;11478;51.094;7.030;2023-11-22T11:06:36;4.35;;;2.60;;
22622;SDS011;11478;51.094;7.030;2023-11-22T11:09:04;4.15;;;2.90;;
22622;SDS011;11478;51.094;7.030;2023-11-22T11:11:37;4.43;;;3.22;;
22622;SDS011;11478;51.094;7.030;2023-11-22T11:14:07;5.50;;;3.65;;
22622;SDS011;11478;51.094;7.030;2023-11-22T11:16:37;4.95;;;3.80;;
22622;SDS011;11478;51.094;7.030;2023-11-22T11:19:12;5.88;;;3.97;;
22622;SDS011;11478;51.094;7.030;2023-11-22T11:21:39;8.38;;;5.13;;
22622;SDS011;11478;51.094;7.030;2023-11-22T11:24:05;5.50;;;4.20;;
22622;SDS011;11478;51.094;7.030;2023-11-22T11:26:32;11.75;;;6.03;;
22622;SDS011;11478;51.094;7.030;2023-11-22T11:29:01;12.43;;;5.93;;
22622;SDS011;11478;51.094;7.030;2023-11-22T11:31:31;10.23;;;6.70;;
22622;SDS011;11478;51.094;7.030;2023-11-22T11:34:01;6.50;;;5.43;;
22622;SDS011;11478;51.094;7.030;2023-11-22T11:36:33;7.32;;;5.07;;
22622;SDS011;11478;51.094;7.030;2023-11-22T11:39:05;6.30;;;4.47;;
22622;SDS011;11478;51.094;7.030;2023-11-22T11:41:40;6.30;;;4.60;;
22622;SDS011;11478;51.094;7.030;2023-11-22T11:44:10;7.88;;;4.82;;
22622;SDS011;11478;51.094;7.030;2023-11-22T11:46:37;7.28;;;4.97;;
22622;SDS011;11478;51.094;7.030;2023-11-22T11:49:08;8.25;;;4.45;;
22622;SDS011;11478;51.094;7.030;2023-11-22T11:51:40;6.95;;;4.32;;
22622;SDS011;11478;51.094;7.030;2023-11-22T11:54:08;12.02;;;7.43;;
22622;SDS011;11478;51.094;7.030;2023-11-22T11:56:36;31.77;;;18.77;;
22622;SDS011;11478;51.094;7.030;2023-11-22T11:59:03;13.65;;;7.82;;
22622;SDS011;11478;51.094;7.030;2023-11-22T12:01:30;9.55;;;5.30;;
22622;SDS011;11478;51.094;7.030;2023-11-22T12:03:57;8.70;;;4.47;;
22622;SDS011;11478;51.094;7.030;2023-11-22T12:06:25;5.63;;;4.15;;
22622;SDS011;11478;51.094;7.030;2023-11-22T12:08:52;6.40;;;3.95;;
22622;SDS011;11478;51.094;7.030;2023-11-22T12:11:18;7.18;;;4.65;;
22622;SDS011;11478;51.094;7.030;2023-11-22T12:13:45;6.63;;;4.55;;
22622;SDS011;11478;51.094;7.030;2023-11-22T12:16:18;9.27;;;6.85;;
22622;SDS011;11478;51.094;7.030;2023-11-22T12:18:44;7.32;;;3.78;;
22622;SDS011;11478;51.094;7.030;2023-11-22T12:21:15;6.00;;;3.72;;
22622;SDS011;11478;51.094;7.030;2023-11-22T12:23:41;4.88;;;3.40;;
22622;SDS011;11478;51.094;7.030;2023-11-22T12:26:09;7.40;;;4.82;;
22622;SDS011;11478;51.094;7.030;2023-11-22T12:28:44;8.75;;;4.18;;
22622;SDS011;11478;51.094;7.030;2023-11-22T12:31:13;7.40;;;4.38;;
22622;SDS011;11478;51.094;7.030;2023-11-22T12:33:41;8.05;;;3.85;;
22622;SDS011;11478;51.094;7.030;2023-11-22T12:36:09;7.85;;;3.90;;
22622;SDS011;11478;51.094;7.030;2023-11-22T12:38:40;6.68;;;4.00;;
22622;SDS011;11478;51.094;7.030;2023-11-22T12:41:06;6.15;;;4.50;;
22622;SDS011;11478;51.094;7.030;2023-11-22T12:43:35;7.78;;;4.93;;
22622;SDS011;11478;51.094;7.030;2023-11-22T12:46:01;6.03;;;4.00;;
22622;SDS011;11478;51.094;7.030;2023-11-22T12:48:30;5.10;;;4.05;;
22622;SDS011;11478;51.094;7.030;2023-11-22T12:50:57;7.28;;;5.05;;
22622;SDS011;11478;51.094;7.030;2023-11-22T12:53:26;8.07;;;4.30;;
22622;SDS011;11478;51.094;7.030;2023-11-22T12:55:54;7.90;;;4.10;;
22622;SDS011;11478;51.094;7.030;2023-11-22T12:58:28;6.65;;;4.18;;
22622;SDS011;11478;51.094;7.030;2023-11-22T13:03:26;6.18;;;3.97;;
22622;SDS011;11478;51.094;7.030;2023-11-22T13:05:52;7.20;;;3.83;;
22622;SDS011;11478;51.094;7.030;2023-11-22T13:08:18;6.72;;;3.72;;
22622;SDS011;11478;51.094;7.030;2023-11-22T13:10:47;5.10;;;3.60;;
22622;SDS011;11478;51.094;7.030;2023-11-22T13:13:23;4.85;;;3.47;;
22622;SDS011;11478;51.094;7.030;2023-11-22T13:15:53;4.68;;;2.83;;
22622;SDS011;11478;51.094;7.030;2023-11-22T13:18:19;4.72;;;3.40;;
22622;SDS011;11478;51.094;7.030;2023-11-22T13:20:53;4.90;;;3.22;;
22622;SDS011;11478;51.094;7.030;2023-11-22T13:23:18;6.32;;;3.25;;
22622;SDS011;11478;51.094;7.030;2023-11-22T13:25:44;4.72;;;3.45;;
22622;SDS011;11478;51.094;7.030;2023-11-22T13:28:11;8.63;;;5.50;;
22622;SDS011;11478;51.094;7.030;2023-11-22T13:30:37;4.90;;;3.10;;
22622;SDS011;11478;51.094;7.030;2023-11-22T13:33:03;5.05;;;3.92;;
22622;SDS011;11478;51.094;7.030;2023-11-22T13:35:32;4.50;;;3.20;;
22622;SDS011;11478;51.094;7.030;2023-11-22T13:38:02;5.30;;;4.07;;
22622;SDS011;11478;51.094;7.030;2023-11-22T13:40:33;4.55;;;4.05;;
22622;SDS011;11478;51.094;7.030;2023-11-22T13:42:59;8.20;;;4.25;;
22622;SDS011;11478;51.094;7.030;2023-11-22T13:45:25;7.13;;;4.80;;
22622;SDS011;11478;51.094;7.030;2023-11-22T13:47:54;5.97;;;4.50;;
22622;SDS011;11478;51.094;7.030;2023-11-22T13:50:28;6.70;;;4.25;;
22622;SDS011;11478;51.094;7.030;2023-11-22T13:52:57;8.60;;;4.10;;
22622;SDS011;11478;51.094;7.030;2023-11-22T13:55:23;6.25;;;4.47;;
22622;SDS011;11478;51.094;7.030;2023-11-22T13:57:57;6.65;;;4.85;;
22622;SDS011;11478;51.094;7.030;2023-11-22T14:00:25;6.28;;;4.50;;
22622;SDS011;11478;51.094;7.030;2023-11-22T14:02:57;5.93;;;4.05;;
22622;SDS011;11478;51.094;7.030;2023-11-22T14:05:30;5.90;;;3.85;;
22622;SDS011;11478;51.094;7.030;2023-11-22T14:07:57;6.28;;;4.25;;
22622;SDS011;11478;51.094;7.030;2023-11-22T14:10:23;6.60;;;4.20;;
22622;SDS011;11478;51.094;7.030;2023-11-22T14:12:50;6.50;;;3.65;;
22622;SDS011;11478;51.094;7.030;2023-11-22T14:15:16;4.97;;;3.05;;
22622;SDS011;11478;51.094;7.030;2023-11-22T14:17:43;6.25;;;3.60;;
22622;SDS011;11478;51.094;7.030;2023-11-22T14:20:09;3.83;;;3.03;;
22622;SDS011;11478;51.094;7.030;2023-11-22T14:22:36;10.52;;;5.15;;
22622;SDS011;11478;51.094;7.030;2023-11-22T14:25:04;5.30;;;3.47;;
22622;SDS011;11478;51.094;7.030;2023-11-22T14:27:38;7.63;;;4.35;;
22622;SDS011;11478;51.094;7.030;2023-11-22T14:30:09;3.85;;;3.28;;
22622;SDS011;11478;51.094;7.030;2023-11-22T14:32:38;7.53;;;3.40;;
22622;SDS011;11478;51.094;7.030;2023-11-22T14:35:05;6.20;;;3.78;;
22622;SDS011;11478;51.094;7.030;2023-11-22T14:37:33;4.88;;;3.30;;
22622;SDS011;11478;51.094;7.030;2023-11-22T14:42:42;5.45;;;3.28;;
22622;SDS011;11478;51.094;7.030;2023-11-22T14:45:11;6.88;;;3.70;;
22622;SDS011;11478;51.094;7.030;2023-11-22T14:47:38;6.72;;;3.85;;
22622;SDS011;11478;51.094;7.030;2023-11-22T14:50:14;6.32;;;3.60;;
22622;SDS011;11478;51.094;7.030;2023-11-22T14:52:40;5.72;;;3.78;;
22622;SDS011;11478;51.094;7.030;2023-11-22T14:55:06;5.63;;;3.05;;
22622;SDS011;11478;51.094;7.030;2023-11-22T14:57:35;6.47;;;3.90;;
22622;SDS011;11478;51.094;7.030;2023-11-22T15:00:02;5.45;;;3.60;;
22622;SDS011;11478;51.094;7.030;2023-11-22T15:02:34;6.22;;;3.10;;